createdAt,value
2022-12-24T00:02:10.344Z,37.10
2022-12-24T00:05:12.159Z,41.17
2022-12-24T00:08:13.733Z,40.33
2022-12-24T00:11:15.383Z,31.57
2022-12-24T00:14:16.968Z,38.90
2022-12-24T00:17:18.674Z,29.83
2022-12-24T00:20:20.262Z,29.83
2022-12-24T00:23:21.906Z,26.10
2022-12-24T00:26:23.577Z,22.63
2022-12-24T00:29:25.247Z,22.60
2022-12-24T00:32:26.918Z,17.57
2022-12-24T00:35:28.571Z,18.57
2022-12-24T00:38:30.216Z,18.10
2022-12-24T00:41:31.832Z,17.17
2022-12-24T00:44:33.428Z,14.57
2022-12-24T00:47:35.015Z,16.03
2022-12-24T00:50:36.686Z,16.67
2022-12-24T00:53:39.457Z,17.40
2022-12-24T00:56:41.142Z,11.77
2022-12-24T00:59:42.829Z,16.33
2022-12-24T01:02:44.739Z,13.97
2022-12-24T01:05:48.458Z,25.83
2022-12-24T01:08:50.573Z,19.30
2022-12-24T01:11:52.133Z,23.90
2022-12-24T01:14:53.900Z,27.13
2022-12-24T01:17:55.583Z,23.30
2022-12-24T01:20:57.255Z,22.87
2022-12-24T01:23:58.871Z,17.97
2022-12-24T01:27:00.541Z,16.03
2022-12-24T01:30:02.268Z,13.53
2022-12-24T01:33:03.907Z,17.77
2022-12-24T01:36:05.699Z,16.67
2022-12-24T01:39:07.321Z,20.17
2022-12-24T01:42:45.903Z,14.67
2022-12-24T01:45:51.745Z,15.83
2022-12-24T01:48:55.799Z,15.83
2022-12-24T01:52:03.191Z,12.07
2022-12-24T01:55:10.051Z,14.87
2022-12-24T01:58:13.752Z,17.80
2022-12-24T02:01:15.733Z,14.63
2022-12-24T02:04:36.277Z,14.67
2022-12-24T02:07:38.327Z,10.20
2022-12-24T02:10:39.956Z,14.43
2022-12-24T02:13:43.776Z,10.60
2022-12-24T02:16:50.742Z,14.57
2022-12-24T02:20:12.572Z,12.07
2022-12-24T02:23:16.758Z,18.43
2022-12-24T02:26:28.120Z,21.27
2022-12-24T02:29:48.609Z,16.73
2022-12-24T02:32:53.048Z,16.33
2022-12-24T02:35:59.402Z,20.23
2022-12-24T02:39:02.839Z,20.17
2022-12-24T02:42:07.962Z,20.20
2022-12-24T02:45:11.749Z,21.50
2022-12-24T02:48:14.982Z,19.83
2022-12-24T02:51:16.557Z,19.57
2022-12-24T02:54:18.258Z,17.77
2022-12-24T02:57:23.010Z,17.23
2022-12-24T03:00:25.121Z,19.10
2022-12-24T03:03:32.764Z,19.60
2022-12-24T03:06:40.126Z,21.80
2022-12-24T03:09:51.089Z,23.73
2022-12-24T03:12:55.752Z,19.47
2022-12-24T03:15:57.469Z,19.17
2022-12-24T03:18:59.832Z,21.63
2022-12-24T03:22:04.208Z,23.17
2022-12-24T03:25:06.091Z,21.27
2022-12-24T03:28:09.503Z,19.93
2022-12-24T03:31:11.601Z,19.67
2022-12-24T03:34:14.291Z,22.27
2022-12-24T03:37:15.949Z,21.67
2022-12-24T03:40:17.810Z,20.87
2022-12-24T03:43:19.441Z,24.33
2022-12-24T03:46:21.130Z,18.80
2022-12-24T03:49:22.875Z,18.83
2022-12-24T03:52:24.732Z,19.43
2022-12-24T03:55:26.345Z,22.10
2022-12-24T03:58:27.927Z,22.30
2022-12-24T04:01:29.619Z,24.47
2022-12-24T04:04:33.508Z,24.57
2022-12-24T04:07:35.246Z,23.70
2022-12-24T04:10:36.787Z,24.10
2022-12-24T04:13:38.392Z,21.47
2022-12-24T04:16:40.002Z,23.57
2022-12-24T04:19:41.876Z,21.87
2022-12-24T04:22:43.594Z,19.97
2022-12-24T04:25:45.193Z,17.70
2022-12-24T04:28:46.970Z,20.47
2022-12-24T04:31:48.591Z,22.17
2022-12-24T04:34:50.265Z,21.07
2022-12-24T04:37:51.846Z,21.13
2022-12-24T04:41:03.917Z,21.40
2022-12-24T04:44:05.604Z,23.27
2022-12-24T04:47:07.225Z,20.97
2022-12-24T04:50:09.051Z,23.10
2022-12-24T04:53:10.823Z,24.73
2022-12-24T04:56:13.904Z,30.73
2022-12-24T04:59:15.492Z,18.50
2022-12-24T05:02:17.321Z,25.80
2022-12-24T05:05:19.129Z,15.13
2022-12-24T05:08:20.750Z,14.87
2022-12-24T05:11:22.534Z,16.93
2022-12-24T05:14:24.326Z,20.73
2022-12-24T05:17:26.020Z,22.13
2022-12-24T05:20:27.649Z,22.50
2022-12-24T05:23:47.557Z,24.57
2022-12-24T05:26:53.725Z,27.40
2022-12-24T05:29:55.571Z,25.40
2022-12-24T05:32:57.126Z,25.83
2022-12-24T05:35:58.727Z,23.80
2022-12-24T05:39:00.503Z,25.20
2022-12-24T05:42:02.096Z,28.50
2022-12-24T05:45:03.825Z,27.70
2022-12-24T05:48:08.167Z,26.00
2022-12-24T05:51:10.655Z,28.87
2022-12-24T05:54:12.284Z,25.27
2022-12-24T05:57:13.922Z,27.40
2022-12-24T06:00:15.720Z,23.90
2022-12-24T06:03:23.068Z,27.67
2022-12-24T06:06:25.884Z,44.33
2022-12-24T06:09:33.785Z,12.77
2022-12-24T06:12:36.335Z,13.63
2022-12-24T06:15:37.989Z,12.30
2022-12-24T06:18:42.713Z,14.87
2022-12-24T06:21:44.459Z,12.97
2022-12-24T06:24:54.569Z,12.43
2022-12-24T06:27:56.184Z,19.00
2022-12-24T06:31:02.600Z,14.83
2022-12-24T06:34:05.184Z,15.40
2022-12-24T06:37:07.004Z,19.90
2022-12-24T06:40:09.087Z,16.97
2022-12-24T06:43:11.066Z,19.53
2022-12-24T06:46:13.156Z,18.17
2022-12-24T06:49:14.856Z,28.33
2022-12-24T06:52:16.509Z,19.83
2022-12-24T06:55:18.400Z,28.80
2022-12-24T06:58:20.081Z,27.70
2022-12-24T07:01:21.785Z,32.20
2022-12-24T07:04:23.615Z,23.40
2022-12-24T07:07:25.393Z,27.93
2022-12-24T07:10:27.038Z,17.97
2022-12-24T07:13:29.391Z,21.37
2022-12-24T07:16:31.072Z,15.90
2022-12-24T07:19:34.208Z,13.20
2022-12-24T07:22:35.845Z,20.83
2022-12-24T07:25:37.547Z,27.20
2022-12-24T07:28:39.209Z,24.27
2022-12-24T07:31:40.998Z,38.63
2022-12-24T07:34:42.773Z,36.57
2022-12-24T07:37:44.326Z,34.20
2022-12-24T07:40:45.979Z,34.90
2022-12-24T07:43:47.641Z,43.37
2022-12-24T07:46:49.324Z,45.40
2022-12-24T07:49:51.035Z,46.30
2022-12-24T07:52:53.350Z,44.00
2022-12-24T07:55:55.660Z,64.80
2022-12-24T07:58:57.554Z,39.97
2022-12-24T08:01:59.411Z,42.27
2022-12-24T08:05:01.193Z,35.13
2022-12-24T08:08:02.870Z,33.23
2022-12-24T08:11:05.378Z,47.27
2022-12-24T08:14:07.302Z,40.47
2022-12-24T08:17:08.982Z,27.17
2022-12-24T08:20:11.131Z,23.93
2022-12-24T08:23:12.752Z,22.80
2022-12-24T08:26:14.407Z,26.77
2022-12-24T08:29:16.151Z,31.07
2022-12-24T08:32:18.007Z,32.93
2022-12-24T08:35:19.591Z,35.33
2022-12-24T08:38:21.500Z,35.83
2022-12-24T08:41:23.202Z,28.43
2022-12-24T08:44:27.369Z,22.30
2022-12-24T08:47:29.077Z,20.90
2022-12-24T08:50:30.695Z,18.40
2022-12-24T08:53:32.310Z,18.10
2022-12-24T08:56:34.579Z,30.03
2022-12-24T08:59:36.191Z,34.33
2022-12-24T09:02:37.913Z,56.00
2022-12-24T09:05:40.057Z,87.03
2022-12-24T09:08:42.094Z,69.53
2022-12-24T09:11:43.847Z,96.93
2022-12-24T09:14:45.470Z,114.77
2022-12-24T09:17:47.074Z,107.67
2022-12-24T09:20:53.862Z,118.63
2022-12-24T09:24:01.352Z,111.13
2022-12-24T09:27:04.006Z,111.60
2022-12-24T09:30:06.614Z,103.47
2022-12-24T09:33:08.227Z,106.27
2022-12-24T09:36:10.186Z,56.57
2022-12-24T09:39:11.852Z,57.47
2022-12-24T09:42:36.772Z,57.67
2022-12-24T09:45:41.954Z,71.07
2022-12-24T09:48:47.748Z,65.13
2022-12-24T09:51:52.502Z,115.50
2022-12-24T09:55:01.498Z,98.40
2022-12-24T09:58:05.053Z,73.57
2022-12-24T10:01:07.229Z,82.90
2022-12-24T10:04:16.618Z,71.60
2022-12-24T10:07:30.416Z,71.80
2022-12-24T10:10:58.858Z,58.07
2022-12-24T10:14:08.655Z,51.57
2022-12-24T10:17:36.659Z,70.57
2022-12-24T10:20:56.354Z,71.43
2022-12-24T10:24:05.133Z,51.23
2022-12-24T10:27:16.292Z,74.70
2022-12-24T10:30:22.115Z,68.00
2022-12-24T10:33:32.552Z,61.13
2022-12-24T10:36:34.161Z,66.33
2022-12-24T10:39:35.982Z,60.60
2022-12-24T10:42:50.571Z,52.93
2022-12-24T10:45:56.875Z,57.33
2022-12-24T10:49:03.852Z,49.13
2022-12-24T10:52:12.528Z,46.30
2022-12-24T10:55:17.227Z,26.13
2022-12-24T10:58:19.861Z,34.53
2022-12-24T11:01:44.662Z,79.23
2022-12-24T11:04:47.813Z,80.60
2022-12-24T11:07:59.470Z,78.00
2022-12-24T11:11:05.911Z,158.40
2022-12-24T11:14:14.451Z,162.90
2022-12-24T11:17:23.176Z,67.60
2022-12-24T11:20:27.001Z,47.53
2022-12-24T11:23:29.201Z,34.90
2022-12-24T11:26:31.125Z,29.87
2022-12-24T11:29:32.696Z,23.20
2022-12-24T11:32:34.384Z,41.17
2022-12-24T11:35:40.009Z,51.30
2022-12-24T11:38:41.697Z,48.60
2022-12-24T11:41:43.358Z,44.03
2022-12-24T11:44:49.488Z,43.93
2022-12-24T11:47:52.138Z,43.37
2022-12-24T11:51:01.253Z,46.30
2022-12-24T11:54:21.777Z,40.90
2022-12-24T11:57:26.637Z,38.20
2022-12-24T12:00:28.733Z,38.13
2022-12-24T12:03:39.671Z,38.80
2022-12-24T12:07:19.922Z,41.80
2022-12-24T12:10:25.964Z,41.13
2022-12-24T12:13:33.517Z,42.13
2022-12-24T12:16:55.215Z,42.23
2022-12-24T12:20:04.113Z,41.80
2022-12-24T12:23:13.252Z,38.27
2022-12-24T12:26:26.335Z,40.80
2022-12-24T12:29:31.728Z,37.67
2022-12-24T12:32:49.159Z,44.87
2022-12-24T12:35:51.815Z,47.53
2022-12-24T12:38:53.538Z,61.83
2022-12-24T12:42:01.559Z,48.63
2022-12-24T12:45:21.926Z,49.60
2022-12-24T12:48:29.515Z,51.67
2022-12-24T12:51:34.263Z,51.23
2022-12-24T12:54:43.553Z,51.87
2022-12-24T12:57:46.651Z,59.30
2022-12-24T13:00:50.745Z,61.57
2022-12-24T13:03:52.487Z,77.83
2022-12-24T13:07:04.954Z,68.27
2022-12-24T13:10:23.120Z,61.80
2022-12-24T13:13:47.967Z,93.60
2022-12-24T13:17:00.577Z,93.50
2022-12-24T13:20:02.249Z,123.40
2022-12-24T13:23:11.398Z,118.90
2022-12-24T13:26:14.316Z,135.40
2022-12-24T13:29:35.017Z,118.10
2022-12-24T13:32:38.260Z,113.17
2022-12-24T13:36:00.184Z,118.23
2022-12-24T13:39:05.010Z,109.53
2022-12-24T13:42:06.878Z,102.63
2022-12-24T13:45:34.442Z,100.43
2022-12-24T13:48:36.370Z,95.50
2022-12-24T13:51:37.989Z,341.53
2022-12-24T13:54:45.303Z,110.73
2022-12-24T13:57:48.252Z,87.37
2022-12-24T14:01:03.263Z,82.30
2022-12-24T14:04:07.319Z,79.57
2022-12-24T14:07:11.419Z,79.03
2022-12-24T14:10:39.349Z,85.20
2022-12-24T14:13:40.998Z,74.37
2022-12-24T14:16:48.813Z,93.67
2022-12-24T14:19:58.585Z,112.03
2022-12-24T14:23:00.219Z,114.83
2022-12-24T14:26:02.535Z,141.30
2022-12-24T14:29:14.226Z,148.03
2022-12-24T14:32:16.752Z,135.07
2022-12-24T14:35:21.335Z,121.53
2022-12-24T14:38:23.017Z,87.27
2022-12-24T14:41:27.754Z,87.80
2022-12-24T14:44:46.328Z,77.13
2022-12-24T14:50:58.929Z,85.80
2022-12-24T14:54:03.618Z,101.77
2022-12-24T14:57:12.635Z,138.77
2022-12-24T15:00:19.164Z,163.03
2022-12-24T15:03:22.345Z,157.30
2022-12-24T15:06:24.034Z,121.10
2022-12-24T15:09:27.525Z,364.17
2022-12-24T15:12:29.386Z,465.53
2022-12-24T15:15:31.398Z,159.03
2022-12-24T15:18:34.329Z,222.90
2022-12-24T15:21:44.198Z,372.30
2022-12-24T15:24:46.873Z,192.17
2022-12-24T15:27:48.572Z,221.00
2022-12-24T15:31:03.946Z,225.93
2022-12-24T15:34:05.686Z,262.23
2022-12-24T15:40:24.457Z,238.73
2022-12-24T15:43:26.609Z,191.77
2022-12-24T15:46:29.637Z,130.90
2022-12-24T15:49:32.601Z,136.27
2022-12-24T15:52:39.339Z,140.87
2022-12-24T15:55:43.570Z,152.03
2022-12-24T15:58:45.638Z,150.30
2022-12-24T16:01:48.248Z,149.03
2022-12-24T16:04:49.934Z,152.83
2022-12-24T16:08:09.957Z,155.43
2022-12-24T16:11:16.024Z,177.23
2022-12-24T16:14:20.373Z,194.43
2022-12-24T16:17:23.215Z,184.77
2022-12-24T16:20:24.789Z,213.37
2022-12-24T16:23:29.761Z,244.33
2022-12-24T16:26:31.333Z,223.97
2022-12-24T16:29:32.965Z,240.93
2022-12-24T16:32:35.967Z,192.83
2022-12-24T16:35:38.623Z,234.17
2022-12-24T16:38:59.251Z,221.37
2022-12-24T16:42:20.528Z,174.53
2022-12-24T16:45:22.157Z,171.47
2022-12-24T16:48:24.788Z,206.30
2022-12-24T16:51:26.333Z,219.13
2022-12-24T16:54:30.063Z,178.50
2022-12-24T16:57:33.224Z,194.10
2022-12-24T17:00:36.198Z,194.70
2022-12-24T17:03:37.999Z,192.53
2022-12-24T17:06:39.809Z,181.40
2022-12-24T17:09:41.409Z,207.30
2022-12-24T17:12:43.306Z,189.03
2022-12-24T17:15:45.005Z,178.93
2022-12-24T17:18:47.245Z,170.43
2022-12-24T17:21:49.025Z,176.33
2022-12-24T17:24:50.573Z,175.53
2022-12-24T17:27:52.158Z,208.93
2022-12-24T17:30:53.928Z,292.50
2022-12-24T17:33:55.551Z,238.97
2022-12-24T17:36:57.241Z,201.40
2022-12-24T17:39:59.048Z,100.13
2022-12-24T17:43:00.819Z,122.70
2022-12-24T17:46:06.403Z,142.57
2022-12-24T17:49:08.370Z,195.27
2022-12-24T17:52:09.960Z,214.53
2022-12-24T17:55:11.892Z,224.07
2022-12-24T17:58:15.174Z,240.90
2022-12-24T18:01:18.600Z,255.47
2022-12-24T18:04:20.403Z,297.23
2022-12-24T18:07:22.146Z,263.10
2022-12-24T18:10:23.717Z,126.83
2022-12-24T18:13:25.528Z,117.57
2022-12-24T18:16:30.005Z,126.47
2022-12-24T18:19:31.654Z,137.03
2022-12-24T18:22:33.336Z,168.93
2022-12-24T18:25:34.966Z,183.83
2022-12-24T18:28:36.514Z,137.53
2022-12-24T18:31:38.663Z,148.33
2022-12-24T18:34:40.242Z,146.37
2022-12-24T18:37:41.947Z,167.43
2022-12-24T18:40:43.619Z,147.97
2022-12-24T18:43:45.229Z,149.37
2022-12-24T18:46:46.942Z,171.50
2022-12-24T18:49:48.530Z,158.40
2022-12-24T18:52:50.620Z,193.50
2022-12-24T18:55:52.316Z,193.07
2022-12-24T18:58:58.140Z,192.17
2022-12-24T19:01:59.854Z,202.53
2022-12-24T19:05:01.509Z,189.27
2022-12-24T19:08:22.338Z,183.03
2022-12-24T19:11:25.151Z,142.87
2022-12-24T19:14:26.895Z,153.67
2022-12-24T19:17:28.700Z,135.73
2022-12-24T19:20:30.364Z,140.10
2022-12-24T19:23:31.931Z,162.40
2022-12-24T19:26:33.501Z,171.03
2022-12-24T19:29:35.651Z,187.40
2022-12-24T19:32:37.997Z,207.13
2022-12-24T19:35:39.751Z,192.77
2022-12-24T19:38:41.450Z,174.53
2022-12-24T19:41:43.072Z,176.83
2022-12-24T19:44:44.678Z,318.47
2022-12-24T19:47:49.893Z,245.83
2022-12-24T19:50:51.535Z,249.47
2022-12-24T19:53:57.343Z,234.20
2022-12-24T19:56:58.905Z,256.47
2022-12-24T20:00:00.596Z,263.63
2022-12-24T20:03:02.485Z,292.73
2022-12-24T20:06:04.443Z,252.97
2022-12-24T20:09:07.507Z,234.07
2022-12-24T20:12:09.175Z,223.67
2022-12-24T20:15:11.418Z,227.67
2022-12-24T20:18:13.731Z,233.83
2022-12-24T20:21:15.347Z,200.80
2022-12-24T20:24:17.104Z,238.77
2022-12-24T20:27:18.737Z,197.50
2022-12-24T20:30:20.382Z,205.83
2022-12-24T20:33:21.965Z,221.17
2022-12-24T20:36:24.465Z,195.17
2022-12-24T20:39:26.130Z,172.67
2022-12-24T20:42:27.751Z,163.70
2022-12-24T20:45:29.411Z,129.53
2022-12-24T20:48:31.343Z,90.37
2022-12-24T20:51:33.010Z,40.93
2022-12-24T20:54:34.552Z,62.60
2022-12-24T20:57:36.807Z,150.40
2022-12-24T21:00:38.684Z,54.70
2022-12-24T21:03:40.458Z,35.13
2022-12-24T21:06:43.197Z,33.47
2022-12-24T21:09:44.830Z,34.67
2022-12-24T21:12:49.310Z,44.60
2022-12-24T21:15:51.480Z,44.83
2022-12-24T21:18:53.184Z,37.50
2022-12-24T21:21:55.204Z,28.70
2022-12-24T21:24:56.880Z,32.40
2022-12-24T21:27:58.590Z,31.73
2022-12-24T21:31:00.262Z,25.73
2022-12-24T21:34:02.031Z,23.27
2022-12-24T21:37:03.795Z,25.00
2022-12-24T21:40:05.831Z,23.33
2022-12-24T21:43:10.129Z,23.17
2022-12-24T21:46:13.196Z,22.40
2022-12-24T21:49:33.321Z,21.70
2022-12-24T21:52:34.980Z,21.20
2022-12-24T21:55:36.620Z,18.53
2022-12-24T21:58:38.237Z,21.23
2022-12-24T22:01:39.888Z,20.27
2022-12-24T22:04:42.000Z,15.33
2022-12-24T22:08:02.133Z,15.00
2022-12-24T22:11:22.284Z,13.53
2022-12-24T22:14:23.909Z,11.93
2022-12-24T22:17:26.075Z,15.60
2022-12-24T22:20:27.851Z,16.40
2022-12-24T22:23:29.482Z,20.07
2022-12-24T22:26:31.050Z,12.93
2022-12-24T22:29:33.401Z,13.50
2022-12-24T22:32:35.141Z,12.13
2022-12-24T22:35:37.682Z,10.73
2022-12-24T22:38:42.313Z,13.07
2022-12-24T22:41:43.994Z,16.13
2022-12-24T22:44:47.251Z,15.47
2022-12-24T22:47:49.402Z,12.90
2022-12-24T22:50:51.135Z,18.90
2022-12-24T22:53:52.730Z,27.53
2022-12-24T22:56:54.377Z,24.33
2022-12-24T22:59:55.986Z,12.37
2022-12-24T23:02:57.648Z,14.27
2022-12-24T23:06:00.497Z,17.77
2022-12-24T23:09:03.110Z,20.53
2022-12-24T23:12:05.032Z,18.30
2022-12-24T23:15:07.048Z,13.23
2022-12-24T23:18:09.143Z,12.23
2022-12-24T23:21:10.836Z,14.43
2022-12-24T23:24:12.458Z,10.27
2022-12-24T23:27:14.058Z,10.13
2022-12-24T23:30:15.741Z,10.70
2022-12-24T23:33:17.321Z,10.27
2022-12-24T23:36:19.649Z,9.33
2022-12-24T23:39:21.332Z,8.47
2022-12-24T23:42:22.973Z,10.57
2022-12-24T23:45:24.614Z,10.03
2022-12-24T23:48:26.691Z,11.37
2022-12-24T23:51:28.556Z,9.07
2022-12-24T23:54:30.205Z,9.20
2022-12-24T23:57:31.815Z,10.87
